sensor_id;sensor_type;location;lat;lon;timestamp;P1;durP1;ratioP1;P2;durP2;ratioP2
55368;SDS011;41247;49.736;8.752;2024-01-15T00:03:08;80.38;;;22.38;;
55368;SDS011;41247;49.736;8.752;2024-01-15T00:06:49;72.68;;;20.52;;
55368;SDS011;41247;49.736;8.752;2024-01-15T00:10:30;63.00;;;18.63;;
55368;SDS011;41247;49.736;8.752;2024-01-15T00:14:11;75.55;;;20.05;;
55368;SDS011;41247;49.736;8.752;2024-01-15T00:17:51;68.78;;;20.40;;
55368;SDS011;41247;49.736;8.752;2024-01-15T00:21:32;79.97;;;21.10;;
55368;SDS011;41247;49.736;8.752;2024-01-15T00:25:12;73.60;;;20.15;;
55368;SDS011;41247;49.736;8.752;2024-01-15T00:28:53;78.10;;;21.05;;
55368;SDS011;41247;49.736;8.752;2024-01-15T00:32:36;76.63;;;20.73;;
55368;SDS011;41247;49.736;8.752;2024-01-15T00:36:16;67.65;;;19.90;;
55368;SDS011;41247;49.736;8.752;2024-01-15T00:39:57;69.05;;;20.30;;
55368;SDS011;41247;49.736;8.752;2024-01-15T00:43:37;70.90;;;21.23;;
55368;SDS011;41247;49.736;8.752;2024-01-15T00:47:18;77.28;;;19.90;;
55368;SDS011;41247;49.736;8.752;2024-01-15T00:50:59;81.25;;;22.25;;
55368;SDS011;41247;49.736;8.752;2024-01-15T00:54:39;73.65;;;20.20;;
55368;SDS011;41247;49.736;8.752;2024-01-15T00:58:20;75.57;;;19.98;;
55368;SDS011;41247;49.736;8.752;2024-01-15T01:02:00;71.30;;;19.48;;
55368;SDS011;41247;49.736;8.752;2024-01-15T01:05:41;73.05;;;21.08;;
55368;SDS011;41247;49.736;8.752;2024-01-15T01:09:22;70.32;;;21.05;;
55368;SDS011;41247;49.736;8.752;2024-01-15T01:13:02;76.63;;;21.67;;
55368;SDS011;41247;49.736;8.752;2024-01-15T01:16:43;67.00;;;19.30;;
55368;SDS011;41247;49.736;8.752;2024-01-15T01:20:24;74.43;;;20.35;;
55368;SDS011;41247;49.736;8.752;2024-01-15T01:24:04;72.97;;;19.20;;
55368;SDS011;41247;49.736;8.752;2024-01-15T01:27:45;72.45;;;20.65;;
55368;SDS011;41247;49.736;8.752;2024-01-15T01:31:26;72.40;;;19.67;;
55368;SDS011;41247;49.736;8.752;2024-01-15T01:35:06;70.28;;;18.58;;
55368;SDS011;41247;49.736;8.752;2024-01-15T01:38:47;70.35;;;20.40;;
55368;SDS011;41247;49.736;8.752;2024-01-15T01:42:27;78.63;;;19.92;;
55368;SDS011;41247;49.736;8.752;2024-01-15T01:46:08;73.55;;;20.60;;
55368;SDS011;41247;49.736;8.752;2024-01-15T01:49:49;71.22;;;20.15;;
55368;SDS011;41247;49.736;8.752;2024-01-15T01:53:30;73.55;;;20.70;;
55368;SDS011;41247;49.736;8.752;2024-01-15T01:57:15;77.70;;;20.45;;
55368;SDS011;41247;49.736;8.752;2024-01-15T02:00:57;72.72;;;20.40;;
55368;SDS011;41247;49.736;8.752;2024-01-15T02:04:39;72.07;;;19.95;;
55368;SDS011;41247;49.736;8.752;2024-01-15T02:08:20;68.38;;;19.70;;
55368;SDS011;41247;49.736;8.752;2024-01-15T02:12:00;72.35;;;20.20;;
55368;SDS011;41247;49.736;8.752;2024-01-15T02:15:41;72.50;;;18.05;;
55368;SDS011;41247;49.736;8.752;2024-01-15T02:19:22;61.75;;;17.95;;
55368;SDS011;41247;49.736;8.752;2024-01-15T02:23:05;71.07;;;19.40;;
55368;SDS011;41247;49.736;8.752;2024-01-15T02:26:51;62.38;;;18.17;;
55368;SDS011;41247;49.736;8.752;2024-01-15T02:30:32;71.32;;;17.42;;
55368;SDS011;41247;49.736;8.752;2024-01-15T02:34:17;64.63;;;17.95;;
55368;SDS011;41247;49.736;8.752;2024-01-15T02:37:57;70.50;;;18.90;;
55368;SDS011;41247;49.736;8.752;2024-01-15T02:41:38;58.33;;;18.25;;
55368;SDS011;41247;49.736;8.752;2024-01-15T02:45:19;66.22;;;18.20;;
55368;SDS011;41247;49.736;8.752;2024-01-15T02:49:00;64.85;;;17.98;;
55368;SDS011;41247;49.736;8.752;2024-01-15T02:52:41;66.05;;;17.92;;
55368;SDS011;41247;49.736;8.752;2024-01-15T02:56:22;60.80;;;17.30;;
55368;SDS011;41247;49.736;8.752;2024-01-15T03:00:03;65.20;;;17.98;;
55368;SDS011;41247;49.736;8.752;2024-01-15T03:03:44;58.90;;;17.50;;
55368;SDS011;41247;49.736;8.752;2024-01-15T03:07:25;57.53;;;17.20;;
55368;SDS011;41247;49.736;8.752;2024-01-15T03:11:05;61.97;;;17.80;;
55368;SDS011;41247;49.736;8.752;2024-01-15T03:14:46;57.45;;;17.38;;
55368;SDS011;41247;49.736;8.752;2024-01-15T03:18:26;56.50;;;15.57;;
55368;SDS011;41247;49.736;8.752;2024-01-15T03:22:07;54.90;;;15.70;;
55368;SDS011;41247;49.736;8.752;2024-01-15T03:25:48;61.47;;;16.75;;
55368;SDS011;41247;49.736;8.752;2024-01-15T03:29:28;61.25;;;16.63;;
55368;SDS011;41247;49.736;8.752;2024-01-15T03:33:09;62.00;;;16.00;;
55368;SDS011;41247;49.736;8.752;2024-01-15T03:36:49;55.83;;;16.00;;
55368;SDS011;41247;49.736;8.752;2024-01-15T03:40:30;62.28;;;17.20;;
55368;SDS011;41247;49.736;8.752;2024-01-15T03:44:11;58.47;;;16.58;;
55368;SDS011;41247;49.736;8.752;2024-01-15T03:47:51;64.15;;;17.05;;
55368;SDS011;41247;49.736;8.752;2024-01-15T03:51:32;57.85;;;16.35;;
55368;SDS011;41247;49.736;8.752;2024-01-15T03:55:12;61.15;;;16.02;;
55368;SDS011;41247;49.736;8.752;2024-01-15T03:58:53;58.58;;;16.17;;
55368;SDS011;41247;49.736;8.752;2024-01-15T04:02:33;53.78;;;17.02;;
55368;SDS011;41247;49.736;8.752;2024-01-15T04:06:14;56.78;;;15.77;;
55368;SDS011;41247;49.736;8.752;2024-01-15T04:09:55;58.20;;;16.25;;
55368;SDS011;41247;49.736;8.752;2024-01-15T04:13:35;55.03;;;15.40;;
55368;SDS011;41247;49.736;8.752;2024-01-15T04:17:16;50.67;;;15.57;;
55368;SDS011;41247;49.736;8.752;2024-01-15T04:20:56;59.00;;;16.17;;
55368;SDS011;41247;49.736;8.752;2024-01-15T04:24:37;58.83;;;15.07;;
55368;SDS011;41247;49.736;8.752;2024-01-15T04:28:18;52.28;;;15.63;;
55368;SDS011;41247;49.736;8.752;2024-01-15T04:31:58;52.50;;;15.82;;
55368;SDS011;41247;49.736;8.752;2024-01-15T04:35:39;45.28;;;15.07;;
55368;SDS011;41247;49.736;8.752;2024-01-15T04:39:19;51.75;;;15.45;;
55368;SDS011;41247;49.736;8.752;2024-01-15T04:43:00;55.42;;;15.75;;
55368;SDS011;41247;49.736;8.752;2024-01-15T04:46:40;58.85;;;15.13;;
55368;SDS011;41247;49.736;8.752;2024-01-15T04:50:21;45.30;;;14.48;;
55368;SDS011;41247;49.736;8.752;2024-01-15T04:54:02;53.17;;;14.98;;
55368;SDS011;41247;49.736;8.752;2024-01-15T04:57:42;54.67;;;15.45;;
55368;SDS011;41247;49.736;8.752;2024-01-15T05:01:23;59.10;;;15.70;;
55368;SDS011;41247;49.736;8.752;2024-01-15T05:05:04;54.47;;;16.55;;
55368;SDS011;41247;49.736;8.752;2024-01-15T05:08:44;58.75;;;15.20;;
55368;SDS011;41247;49.736;8.752;2024-01-15T05:12:25;52.13;;;14.40;;
55368;SDS011;41247;49.736;8.752;2024-01-15T05:16:05;58.70;;;14.63;;
55368;SDS011;41247;49.736;8.752;2024-01-15T05:19:46;47.70;;;14.82;;
55368;SDS011;41247;49.736;8.752;2024-01-15T05:23:26;47.78;;;14.85;;
55368;SDS011;41247;49.736;8.752;2024-01-15T05:27:07;53.40;;;15.02;;
55368;SDS011;41247;49.736;8.752;2024-01-15T05:30:48;49.40;;;14.77;;
55368;SDS011;41247;49.736;8.752;2024-01-15T05:34:28;53.35;;;14.30;;
55368;SDS011;41247;49.736;8.752;2024-01-15T05:38:09;51.40;;;14.23;;
55368;SDS011;41247;49.736;8.752;2024-01-15T05:41:50;53.05;;;16.63;;
55368;SDS011;41247;49.736;8.752;2024-01-15T05:45:30;55.30;;;14.88;;
55368;SDS011;41247;49.736;8.752;2024-01-15T05:49:11;50.38;;;14.38;;
55368;SDS011;41247;49.736;8.752;2024-01-15T05:52:51;50.63;;;14.93;;
55368;SDS011;41247;49.736;8.752;2024-01-15T05:56:32;50.17;;;14.85;;
55368;SDS011;41247;49.736;8.752;2024-01-15T06:00:13;52.97;;;15.25;;
55368;SDS011;41247;49.736;8.752;2024-01-15T06:03:53;56.30;;;14.65;;
55368;SDS011;41247;49.736;8.752;2024-01-15T06:07:36;47.53;;;14.95;;
55368;SDS011;41247;49.736;8.752;2024-01-15T06:11:17;53.00;;;15.52;;
55368;SDS011;41247;49.736;8.752;2024-01-15T06:14:57;55.17;;;15.55;;
55368;SDS011;41247;49.736;8.752;2024-01-15T06:18:38;55.70;;;16.33;;
55368;SDS011;41247;49.736;8.752;2024-01-15T06:22:19;58.70;;;14.85;;
55368;SDS011;41247;49.736;8.752;2024-01-15T06:26:00;55.00;;;15.82;;
55368;SDS011;41247;49.736;8.752;2024-01-15T06:29:44;52.13;;;14.77;;
55368;SDS011;41247;49.736;8.752;2024-01-15T06:33:25;51.17;;;15.73;;
55368;SDS011;41247;49.736;8.752;2024-01-15T06:37:06;55.92;;;17.05;;
55368;SDS011;41247;49.736;8.752;2024-01-15T06:40:46;46.55;;;14.38;;
55368;SDS011;41247;49.736;8.752;2024-01-15T06:44:27;55.47;;;15.02;;
55368;SDS011;41247;49.736;8.752;2024-01-15T06:48:08;51.83;;;14.25;;
55368;SDS011;41247;49.736;8.752;2024-01-15T06:51:48;56.05;;;14.35;;
55368;SDS011;41247;49.736;8.752;2024-01-15T06:55:29;46.45;;;14.65;;
55368;SDS011;41247;49.736;8.752;2024-01-15T06:59:09;48.78;;;15.10;;
55368;SDS011;41247;49.736;8.752;2024-01-15T07:02:50;46.72;;;14.13;;
55368;SDS011;41247;49.736;8.752;2024-01-15T07:06:31;48.97;;;14.30;;
55368;SDS011;41247;49.736;8.752;2024-01-15T07:10:11;44.38;;;13.30;;
55368;SDS011;41247;49.736;8.752;2024-01-15T07:13:52;49.72;;;15.80;;
55368;SDS011;41247;49.736;8.752;2024-01-15T07:17:32;48.03;;;15.20;;
55368;SDS011;41247;49.736;8.752;2024-01-15T07:21:14;54.40;;;16.23;;
55368;SDS011;41247;49.736;8.752;2024-01-15T07:24:55;44.17;;;15.18;;
55368;SDS011;41247;49.736;8.752;2024-01-15T07:28:36;45.58;;;14.98;;
55368;SDS011;41247;49.736;8.752;2024-01-15T07:32:17;52.80;;;16.75;;
55368;SDS011;41247;49.736;8.752;2024-01-15T07:35:57;53.47;;;15.35;;
55368;SDS011;41247;49.736;8.752;2024-01-15T07:39:38;49.47;;;15.43;;
55368;SDS011;41247;49.736;8.752;2024-01-15T07:43:19;52.65;;;15.40;;
55368;SDS011;41247;49.736;8.752;2024-01-15T07:47:00;54.08;;;14.88;;
55368;SDS011;41247;49.736;8.752;2024-01-15T07:50:40;42.55;;;13.98;;
55368;SDS011;41247;49.736;8.752;2024-01-15T07:54:21;50.47;;;15.25;;
55368;SDS011;41247;49.736;8.752;2024-01-15T07:58:01;51.33;;;16.90;;
55368;SDS011;41247;49.736;8.752;2024-01-15T08:01:42;53.25;;;15.52;;
55368;SDS011;41247;49.736;8.752;2024-01-15T08:05:23;49.50;;;16.00;;
55368;SDS011;41247;49.736;8.752;2024-01-15T08:09:03;49.78;;;14.68;;
55368;SDS011;41247;49.736;8.752;2024-01-15T08:12:44;47.88;;;15.40;;
55368;SDS011;41247;49.736;8.752;2024-01-15T08:16:24;48.22;;;15.80;;
55368;SDS011;41247;49.736;8.752;2024-01-15T08:20:05;51.53;;;15.73;;
55368;SDS011;41247;49.736;8.752;2024-01-15T08:23:46;44.50;;;15.00;;
55368;SDS011;41247;49.736;8.752;2024-01-15T08:27:27;51.40;;;15.05;;
55368;SDS011;41247;49.736;8.752;2024-01-15T08:31:09;47.85;;;15.35;;
55368;SDS011;41247;49.736;8.752;2024-01-15T08:34:49;53.10;;;15.82;;
55368;SDS011;41247;49.736;8.752;2024-01-15T08:38:30;50.45;;;15.40;;
55368;SDS011;41247;49.736;8.752;2024-01-15T08:42:10;45.40;;;15.10;;
55368;SDS011;41247;49.736;8.752;2024-01-15T08:45:51;41.63;;;14.05;;
55368;SDS011;41247;49.736;8.752;2024-01-15T08:49:31;46.92;;;15.43;;
55368;SDS011;41247;49.736;8.752;2024-01-15T08:53:12;52.00;;;15.65;;
55368;SDS011;41247;49.736;8.752;2024-01-15T08:56:53;47.10;;;14.73;;
55368;SDS011;41247;49.736;8.752;2024-01-15T09:00:34;44.40;;;14.52;;
55368;SDS011;41247;49.736;8.752;2024-01-15T09:04:14;49.15;;;14.68;;
55368;SDS011;41247;49.736;8.752;2024-01-15T09:07:55;37.97;;;14.25;;
55368;SDS011;41247;49.736;8.752;2024-01-15T09:11:36;38.28;;;13.55;;
55368;SDS011;41247;49.736;8.752;2024-01-15T09:15:17;48.97;;;15.98;;
55368;SDS011;41247;49.736;8.752;2024-01-15T09:18:57;46.40;;;15.80;;
55368;SDS011;41247;49.736;8.752;2024-01-15T09:22:38;50.75;;;14.90;;
55368;SDS011;41247;49.736;8.752;2024-01-15T09:26:19;52.40;;;17.20;;
55368;SDS011;41247;49.736;8.752;2024-01-15T09:29:59;46.33;;;15.43;;
55368;SDS011;41247;49.736;8.752;2024-01-15T09:33:40;47.53;;;16.73;;
55368;SDS011;41247;49.736;8.752;2024-01-15T09:37:20;51.08;;;16.42;;
55368;SDS011;41247;49.736;8.752;2024-01-15T09:41:01;48.58;;;16.42;;
55368;SDS011;41247;49.736;8.752;2024-01-15T09:44:42;47.22;;;15.73;;
55368;SDS011;41247;49.736;8.752;2024-01-15T09:48:23;49.65;;;16.65;;
55368;SDS011;41247;49.736;8.752;2024-01-15T09:52:03;54.28;;;17.58;;
55368;SDS011;41247;49.736;8.752;2024-01-15T09:55:44;54.20;;;17.30;;
55368;SDS011;41247;49.736;8.752;2024-01-15T09:59:25;50.20;;;16.75;;
55368;SDS011;41247;49.736;8.752;2024-01-15T10:03:06;49.55;;;16.58;;
55368;SDS011;41247;49.736;8.752;2024-01-15T10:06:48;54.22;;;17.65;;
55368;SDS011;41247;49.736;8.752;2024-01-15T10:10:31;46.92;;;16.90;;
55368;SDS011;41247;49.736;8.752;2024-01-15T10:14:12;48.38;;;16.30;;
55368;SDS011;41247;49.736;8.752;2024-01-15T10:17:53;44.65;;;16.63;;
55368;SDS011;41247;49.736;8.752;2024-01-15T10:21:34;46.75;;;17.58;;
55368;SDS011;41247;49.736;8.752;2024-01-15T10:25:15;46.05;;;16.33;;
55368;SDS011;41247;49.736;8.752;2024-01-15T10:28:56;45.75;;;16.58;;
55368;SDS011;41247;49.736;8.752;2024-01-15T10:32:38;41.17;;;15.35;;
55368;SDS011;41247;49.736;8.752;2024-01-15T10:36:19;46.97;;;15.88;;
55368;SDS011;41247;49.736;8.752;2024-01-15T10:40:01;40.30;;;14.73;;
55368;SDS011;41247;49.736;8.752;2024-01-15T10:43:43;43.95;;;15.85;;
55368;SDS011;41247;49.736;8.752;2024-01-15T10:47:23;47.85;;;17.30;;
55368;SDS011;41247;49.736;8.752;2024-01-15T10:51:04;43.40;;;15.90;;
55368;SDS011;41247;49.736;8.752;2024-01-15T10:54:46;46.13;;;15.32;;
55368;SDS011;41247;49.736;8.752;2024-01-15T10:58:28;44.95;;;16.20;;
55368;SDS011;41247;49.736;8.752;2024-01-15T11:02:12;46.33;;;15.98;;
55368;SDS011;41247;49.736;8.752;2024-01-15T11:05:54;41.05;;;14.05;;
55368;SDS011;41247;49.736;8.752;2024-01-15T11:09:34;43.92;;;16.10;;
55368;SDS011;41247;49.736;8.752;2024-01-15T11:17:12;42.03;;;14.75;;
55368;SDS011;41247;49.736;8.752;2024-01-15T11:24:56;38.00;;;14.07;;
55368;SDS011;41247;49.736;8.752;2024-01-15T11:28:48;38.97;;;15.07;;
55368;SDS011;41247;49.736;8.752;2024-01-15T11:32:33;39.55;;;14.45;;
55368;SDS011;41247;49.736;8.752;2024-01-15T11:36:13;44.55;;;16.25;;
55368;SDS011;41247;49.736;8.752;2024-01-15T11:39:55;43.05;;;16.05;;
55368;SDS011;41247;49.736;8.752;2024-01-15T11:43:41;38.67;;;14.45;;
55368;SDS011;41247;49.736;8.752;2024-01-15T11:47:32;39.30;;;14.20;;
55368;SDS011;41247;49.736;8.752;2024-01-15T11:51:51;38.08;;;15.35;;
55368;SDS011;41247;49.736;8.752;2024-01-15T11:55:34;39.27;;;14.43;;
55368;SDS011;41247;49.736;8.752;2024-01-15T11:59:19;41.53;;;14.00;;
55368;SDS011;41247;49.736;8.752;2024-01-15T12:02:59;41.55;;;14.68;;
55368;SDS011;41247;49.736;8.752;2024-01-15T12:06:40;39.50;;;14.43;;
55368;SDS011;41247;49.736;8.752;2024-01-15T12:10:22;39.25;;;13.95;;
55368;SDS011;41247;49.736;8.752;2024-01-15T12:14:03;37.92;;;13.77;;
55368;SDS011;41247;49.736;8.752;2024-01-15T12:17:43;35.50;;;13.07;;
55368;SDS011;41247;49.736;8.752;2024-01-15T12:21:28;37.83;;;13.82;;
55368;SDS011;41247;49.736;8.752;2024-01-15T12:25:09;33.95;;;13.32;;
55368;SDS011;41247;49.736;8.752;2024-01-15T12:28:50;36.30;;;14.05;;
55368;SDS011;41247;49.736;8.752;2024-01-15T12:32:31;37.08;;;13.93;;
55368;SDS011;41247;49.736;8.752;2024-01-15T12:36:12;45.60;;;15.15;;
55368;SDS011;41247;49.736;8.752;2024-01-15T12:39:53;32.63;;;12.70;;
55368;SDS011;41247;49.736;8.752;2024-01-15T12:43:34;31.83;;;12.85;;
55368;SDS011;41247;49.736;8.752;2024-01-15T12:47:15;31.33;;;12.30;;
55368;SDS011;41247;49.736;8.752;2024-01-15T12:50:56;29.77;;;11.63;;
55368;SDS011;41247;49.736;8.752;2024-01-15T12:54:36;31.10;;;11.88;;
55368;SDS011;41247;49.736;8.752;2024-01-15T12:58:17;31.80;;;11.93;;
55368;SDS011;41247;49.736;8.752;2024-01-15T13:01:57;33.38;;;12.27;;
55368;SDS011;41247;49.736;8.752;2024-01-15T13:05:38;29.85;;;11.88;;
55368;SDS011;41247;49.736;8.752;2024-01-15T13:09:19;34.88;;;13.38;;
55368;SDS011;41247;49.736;8.752;2024-01-15T13:13:00;30.05;;;11.55;;
55368;SDS011;41247;49.736;8.752;2024-01-15T13:16:41;32.58;;;12.13;;
55368;SDS011;41247;49.736;8.752;2024-01-15T13:20:22;32.13;;;12.10;;
55368;SDS011;41247;49.736;8.752;2024-01-15T13:24:02;31.08;;;12.93;;
55368;SDS011;41247;49.736;8.752;2024-01-15T13:27:43;37.55;;;11.65;;
55368;SDS011;41247;49.736;8.752;2024-01-15T13:31:24;26.65;;;11.63;;
55368;SDS011;41247;49.736;8.752;2024-01-15T13:35:04;25.95;;;11.30;;
55368;SDS011;41247;49.736;8.752;2024-01-15T13:38:45;29.23;;;11.70;;
55368;SDS011;41247;49.736;8.752;2024-01-15T13:42:26;29.65;;;10.70;;
55368;SDS011;41247;49.736;8.752;2024-01-15T13:46:06;29.42;;;11.38;;
55368;SDS011;41247;49.736;8.752;2024-01-15T13:49:47;30.13;;;11.07;;
55368;SDS011;41247;49.736;8.752;2024-01-15T13:53:27;31.23;;;11.10;;
55368;SDS011;41247;49.736;8.752;2024-01-15T13:57:08;24.80;;;10.23;;
55368;SDS011;41247;49.736;8.752;2024-01-15T14:00:49;28.17;;;10.70;;
55368;SDS011;41247;49.736;8.752;2024-01-15T14:04:29;25.13;;;10.63;;
55368;SDS011;41247;49.736;8.752;2024-01-15T14:08:10;25.40;;;10.65;;
55368;SDS011;41247;49.736;8.752;2024-01-15T14:11:51;27.00;;;10.93;;
55368;SDS011;41247;49.736;8.752;2024-01-15T14:15:31;27.42;;;10.50;;
55368;SDS011;41247;49.736;8.752;2024-01-15T14:19:12;25.05;;;10.07;;
55368;SDS011;41247;49.736;8.752;2024-01-15T14:22:53;23.80;;;10.40;;
55368;SDS011;41247;49.736;8.752;2024-01-15T14:26:34;25.67;;;10.07;;
55368;SDS011;41247;49.736;8.752;2024-01-15T14:30:15;22.90;;;9.52;;
55368;SDS011;41247;49.736;8.752;2024-01-15T14:33:56;28.58;;;11.75;;
55368;SDS011;41247;49.736;8.752;2024-01-15T14:37:37;26.08;;;10.70;;
55368;SDS011;41247;49.736;8.752;2024-01-15T14:41:18;27.45;;;11.20;;
55368;SDS011;41247;49.736;8.752;2024-01-15T14:44:58;29.40;;;10.65;;
55368;SDS011;41247;49.736;8.752;2024-01-15T14:48:39;26.80;;;10.98;;
55368;SDS011;41247;49.736;8.752;2024-01-15T14:52:19;23.83;;;9.52;;
55368;SDS011;41247;49.736;8.752;2024-01-15T14:56:00;23.45;;;9.75;;
55368;SDS011;41247;49.736;8.752;2024-01-15T14:59:41;30.98;;;10.68;;
55368;SDS011;41247;49.736;8.752;2024-01-15T15:03:21;21.55;;;9.55;;
55368;SDS011;41247;49.736;8.752;2024-01-15T15:07:02;22.10;;;9.18;;
55368;SDS011;41247;49.736;8.752;2024-01-15T15:10:43;27.15;;;9.35;;
55368;SDS011;41247;49.736;8.752;2024-01-15T15:14:23;18.17;;;8.13;;
55368;SDS011;41247;49.736;8.752;2024-01-15T15:18:04;22.33;;;7.85;;
55368;SDS011;41247;49.736;8.752;2024-01-15T15:21:44;18.77;;;7.72;;
55368;SDS011;41247;49.736;8.752;2024-01-15T15:25:25;19.38;;;6.93;;
55368;SDS011;41247;49.736;8.752;2024-01-15T15:29:06;18.85;;;7.60;;
55368;SDS011;41247;49.736;8.752;2024-01-15T15:32:46;19.35;;;8.43;;
55368;SDS011;41247;49.736;8.752;2024-01-15T15:36:27;19.27;;;7.63;;
55368;SDS011;41247;49.736;8.752;2024-01-15T15:40:08;18.48;;;8.07;;
55368;SDS011;41247;49.736;8.752;2024-01-15T15:43:49;19.08;;;8.60;;
55368;SDS011;41247;49.736;8.752;2024-01-15T15:47:29;19.30;;;8.88;;
55368;SDS011;41247;49.736;8.752;2024-01-15T15:51:10;18.63;;;7.90;;
55368;SDS011;41247;49.736;8.752;2024-01-15T15:54:51;19.73;;;8.15;;
55368;SDS011;41247;49.736;8.752;2024-01-15T15:58:32;15.55;;;8.13;;
55368;SDS011;41247;49.736;8.752;2024-01-15T16:02:12;17.95;;;8.63;;
55368;SDS011;41247;49.736;8.752;2024-01-15T16:05:53;20.67;;;8.57;;
55368;SDS011;41247;49.736;8.752;2024-01-15T16:09:33;20.17;;;8.57;;
55368;SDS011;41247;49.736;8.752;2024-01-15T16:13:14;19.90;;;8.63;;
55368;SDS011;41247;49.736;8.752;2024-01-15T16:16:55;18.02;;;8.52;;
55368;SDS011;41247;49.736;8.752;2024-01-15T16:20:35;22.20;;;8.43;;
55368;SDS011;41247;49.736;8.752;2024-01-15T16:24:16;18.38;;;8.80;;
55368;SDS011;41247;49.736;8.752;2024-01-15T16:27:56;21.05;;;8.73;;
55368;SDS011;41247;49.736;8.752;2024-01-15T16:31:37;16.75;;;7.35;;
55368;SDS011;41247;49.736;8.752;2024-01-15T16:35:18;19.02;;;7.45;;
55368;SDS011;41247;49.736;8.752;2024-01-15T16:39:00;19.17;;;6.85;;
55368;SDS011;41247;49.736;8.752;2024-01-15T16:42:41;16.27;;;7.50;;
55368;SDS011;41247;49.736;8.752;2024-01-15T16:46:21;20.08;;;8.93;;
55368;SDS011;41247;49.736;8.752;2024-01-15T16:50:02;20.45;;;8.52;;
55368;SDS011;41247;49.736;8.752;2024-01-15T16:53:43;21.35;;;8.18;;
55368;SDS011;41247;49.736;8.752;2024-01-15T16:57:23;18.05;;;7.40;;
55368;SDS011;41247;49.736;8.752;2024-01-15T17:01:04;19.58;;;7.65;;
55368;SDS011;41247;49.736;8.752;2024-01-15T17:04:45;18.30;;;7.18;;
55368;SDS011;41247;49.736;8.752;2024-01-15T17:08:25;17.48;;;7.38;;
55368;SDS011;41247;49.736;8.752;2024-01-15T17:12:06;20.30;;;7.13;;
55368;SDS011;41247;49.736;8.752;2024-01-15T17:15:47;17.90;;;7.07;;
55368;SDS011;41247;49.736;8.752;2024-01-15T17:19:28;12.35;;;6.03;;
55368;SDS011;41247;49.736;8.752;2024-01-15T17:23:08;19.75;;;5.68;;
55368;SDS011;41247;49.736;8.752;2024-01-15T17:26:49;18.65;;;6.18;;
55368;SDS011;41247;49.736;8.752;2024-01-15T17:30:30;15.05;;;6.28;;
55368;SDS011;41247;49.736;8.752;2024-01-15T17:34:10;19.17;;;5.50;;
55368;SDS011;41247;49.736;8.752;2024-01-15T17:37:51;20.98;;;6.57;;
55368;SDS011;41247;49.736;8.752;2024-01-15T17:41:33;13.13;;;6.25;;
55368;SDS011;41247;49.736;8.752;2024-01-15T17:45:13;18.75;;;6.72;;
55368;SDS011;41247;49.736;8.752;2024-01-15T17:48:54;19.75;;;6.97;;
55368;SDS011;41247;49.736;8.752;2024-01-15T17:52:35;11.45;;;5.53;;
55368;SDS011;41247;49.736;8.752;2024-01-15T17:56:15;19.33;;;6.70;;
55368;SDS011;41247;49.736;8.752;2024-01-15T17:59:56;16.52;;;6.47;;
55368;SDS011;41247;49.736;8.752;2024-01-15T18:03:36;14.13;;;5.93;;
55368;SDS011;41247;49.736;8.752;2024-01-15T18:07:17;15.52;;;5.43;;
55368;SDS011;41247;49.736;8.752;2024-01-15T18:10:57;12.27;;;5.28;;
55368;SDS011;41247;49.736;8.752;2024-01-15T18:14:38;15.90;;;6.30;;
55368;SDS011;41247;49.736;8.752;2024-01-15T18:18:19;19.80;;;5.80;;
55368;SDS011;41247;49.736;8.752;2024-01-15T18:21:59;16.70;;;5.40;;
55368;SDS011;41247;49.736;8.752;2024-01-15T18:25:41;16.45;;;5.93;;
55368;SDS011;41247;49.736;8.752;2024-01-15T18:29:21;12.80;;;5.25;;
55368;SDS011;41247;49.736;8.752;2024-01-15T18:33:02;23.45;;;6.57;;
55368;SDS011;41247;49.736;8.752;2024-01-15T18:36:43;13.43;;;5.28;;
55368;SDS011;41247;49.736;8.752;2024-01-15T18:40:23;11.70;;;5.32;;
55368;SDS011;41247;49.736;8.752;2024-01-15T18:44:04;15.05;;;5.25;;
55368;SDS011;41247;49.736;8.752;2024-01-15T18:47:45;12.02;;;4.75;;
55368;SDS011;41247;49.736;8.752;2024-01-15T18:51:26;10.80;;;4.88;;
55368;SDS011;41247;49.736;8.752;2024-01-15T18:55:06;14.18;;;5.28;;
55368;SDS011;41247;49.736;8.752;2024-01-15T18:58:47;14.25;;;4.80;;
55368;SDS011;41247;49.736;8.752;2024-01-15T19:02:28;12.60;;;5.25;;
55368;SDS011;41247;49.736;8.752;2024-01-15T19:06:09;8.75;;;4.60;;
55368;SDS011;41247;49.736;8.752;2024-01-15T19:09:49;11.50;;;4.53;;
55368;SDS011;41247;49.736;8.752;2024-01-15T19:13:30;9.90;;;4.45;;
55368;SDS011;41247;49.736;8.752;2024-01-15T19:17:10;10.93;;;4.57;;
55368;SDS011;41247;49.736;8.752;2024-01-15T19:20:51;13.70;;;5.18;;
55368;SDS011;41247;49.736;8.752;2024-01-15T19:24:32;13.77;;;4.57;;
55368;SDS011;41247;49.736;8.752;2024-01-15T19:28:12;18.40;;;5.88;;
55368;SDS011;41247;49.736;8.752;2024-01-15T19:31:53;11.52;;;4.47;;
55368;SDS011;41247;49.736;8.752;2024-01-15T19:35:33;10.18;;;4.35;;
55368;SDS011;41247;49.736;8.752;2024-01-15T19:39:14;11.27;;;4.13;;
55368;SDS011;41247;49.736;8.752;2024-01-15T19:42:55;9.98;;;3.85;;
55368;SDS011;41247;49.736;8.752;2024-01-15T19:46:35;7.57;;;4.15;;
55368;SDS011;41247;49.736;8.752;2024-01-15T19:50:16;12.95;;;4.72;;
55368;SDS011;41247;49.736;8.752;2024-01-15T19:53:56;13.65;;;3.80;;
55368;SDS011;41247;49.736;8.752;2024-01-15T19:57:38;10.20;;;3.88;;
55368;SDS011;41247;49.736;8.752;2024-01-15T20:01:19;14.18;;;3.90;;
55368;SDS011;41247;49.736;8.752;2024-01-15T20:04:59;9.30;;;3.70;;
55368;SDS011;41247;49.736;8.752;2024-01-15T20:08:41;12.95;;;3.75;;
55368;SDS011;41247;49.736;8.752;2024-01-15T20:12:25;9.95;;;3.80;;
55368;SDS011;41247;49.736;8.752;2024-01-15T20:16:06;9.40;;;4.10;;
55368;SDS011;41247;49.736;8.752;2024-01-15T20:19:48;12.07;;;4.63;;
55368;SDS011;41247;49.736;8.752;2024-01-15T20:23:30;11.77;;;4.60;;
55368;SDS011;41247;49.736;8.752;2024-01-15T20:27:12;8.80;;;4.57;;
55368;SDS011;41247;49.736;8.752;2024-01-15T20:30:52;17.65;;;4.72;;
55368;SDS011;41247;49.736;8.752;2024-01-15T20:34:33;15.32;;;5.20;;
55368;SDS011;41247;49.736;8.752;2024-01-15T20:38:13;13.98;;;5.32;;
55368;SDS011;41247;49.736;8.752;2024-01-15T20:41:54;13.95;;;5.00;;
55368;SDS011;41247;49.736;8.752;2024-01-15T20:45:35;8.88;;;5.20;;
55368;SDS011;41247;49.736;8.752;2024-01-15T20:49:15;16.20;;;5.55;;
55368;SDS011;41247;49.736;8.752;2024-01-15T20:52:56;11.80;;;5.05;;
55368;SDS011;41247;49.736;8.752;2024-01-15T20:56:36;14.57;;;5.55;;
55368;SDS011;41247;49.736;8.752;2024-01-15T21:00:17;12.18;;;5.65;;
55368;SDS011;41247;49.736;8.752;2024-01-15T21:03:58;14.10;;;5.68;;
55368;SDS011;41247;49.736;8.752;2024-01-15T21:07:38;14.07;;;5.95;;
55368;SDS011;41247;49.736;8.752;2024-01-15T21:11:19;13.52;;;4.97;;
55368;SDS011;41247;49.736;8.752;2024-01-15T21:15:00;16.02;;;6.00;;
55368;SDS011;41247;49.736;8.752;2024-01-15T21:18:41;12.90;;;5.47;;
55368;SDS011;41247;49.736;8.752;2024-01-15T21:22:21;10.38;;;5.07;;
55368;SDS011;41247;49.736;8.752;2024-01-15T21:26:02;11.25;;;5.55;;
55368;SDS011;41247;49.736;8.752;2024-01-15T21:29:43;12.20;;;5.18;;
55368;SDS011;41247;49.736;8.752;2024-01-15T21:33:23;11.65;;;5.18;;
55368;SDS011;41247;49.736;8.752;2024-01-15T21:37:04;13.18;;;4.93;;
55368;SDS011;41247;49.736;8.752;2024-01-15T21:40:44;10.98;;;5.00;;
55368;SDS011;41247;49.736;8.752;2024-01-15T21:44:25;11.45;;;4.88;;
55368;SDS011;41247;49.736;8.752;2024-01-15T21:48:06;12.68;;;4.60;;